sensor_id;sensor_type;location;lat;lon;timestamp;pressure;altitude;pressure_sealevel;temperature;humidity
57048;BME280;42934;54.294;18.598;2023-02-10T00:01:48;101767.38;;;-0.13;64.69
57048;BME280;42934;54.294;18.598;2023-02-10T00:04:17;101767.50;;;-0.09;64.87
57048;BME280;42934;54.294;18.598;2023-02-10T00:06:47;101776.94;;;-0.09;65.09
57048;BME280;42934;54.294;18.598;2023-02-10T00:09:17;101777.03;;;-0.06;65.76
57048;BME280;42934;54.294;18.598;2023-02-10T00:11:46;101775.44;;;-0.03;66.10
57048;BME280;42934;54.294;18.598;2023-02-10T00:14:25;101765.81;;;-0.07;66.44
57048;BME280;42934;54.294;18.598;2023-02-10T00:16:55;101760.75;;;-0.04;66.58
57048;BME280;42934;54.294;18.598;2023-02-10T00:19:26;101762.59;;;0.01;66.17
57048;BME280;42934;54.294;18.598;2023-02-10T00:21:56;101763.47;;;0.01;66.54
57048;BME280;42934;54.294;18.598;2023-02-10T00:24:27;101754.78;;;-0.03;67.11
57048;BME280;42934;54.294;18.598;2023-02-10T00:26:57;101771.16;;;-0.01;67.00
57048;BME280;42934;54.294;18.598;2023-02-10T00:29:28;101760.84;;;-0.01;67.30
57048;BME280;42934;54.294;18.598;2023-02-10T00:31:59;101759.16;;;0.00;67.63
57048;BME280;42934;54.294;18.598;2023-02-10T00:34:28;101756.59;;;0.02;67.75
57048;BME280;42934;54.294;18.598;2023-02-10T00:36:57;101771.22;;;0.01;68.20
57048;BME280;42934;54.294;18.598;2023-02-10T00:39:28;101777.31;;;0.03;69.11
57048;BME280;42934;54.294;18.598;2023-02-10T00:41:57;101779.13;;;0.07;69.02
57048;BME280;42934;54.294;18.598;2023-02-10T00:44:26;101790.41;;;0.11;68.84
57048;BME280;42934;54.294;18.598;2023-02-10T00:46:56;101801.69;;;0.13;69.02
57048;BME280;42934;54.294;18.598;2023-02-10T00:49:26;101802.56;;;0.13;70.02
57048;BME280;42934;54.294;18.598;2023-02-10T00:51:57;101799.28;;;0.19;69.90
57048;BME280;42934;54.294;18.598;2023-02-10T00:54:27;101803.69;;;0.23;70.34
57048;BME280;42934;54.294;18.598;2023-02-10T00:56:57;101808.91;;;0.25;70.66
57048;BME280;42934;54.294;18.598;2023-02-10T00:59:26;101818.47;;;0.29;70.84
57048;BME280;42934;54.294;18.598;2023-02-10T01:01:55;101822.84;;;0.31;71.12
57048;BME280;42934;54.294;18.598;2023-02-10T01:04:24;101823.03;;;0.37;70.47
57048;BME280;42934;54.294;18.598;2023-02-10T01:06:55;101823.94;;;0.39;71.09
57048;BME280;42934;54.294;18.598;2023-02-10T01:09:24;101833.44;;;0.40;71.78
57048;BME280;42934;54.294;18.598;2023-02-10T01:11:55;101836.16;;;0.45;71.33
57048;BME280;42934;54.294;18.598;2023-02-10T01:14:25;101831.81;;;0.44;72.38
57048;BME280;42934;54.294;18.598;2023-02-10T01:16:55;101831.88;;;0.45;72.16
57048;BME280;42934;54.294;18.598;2023-02-10T01:19:24;101821.69;;;0.50;72.36
57048;BME280;42934;54.294;18.598;2023-02-10T01:21:53;101813.88;;;0.49;72.87
57048;BME280;42934;54.294;18.598;2023-02-10T01:24:22;101822.56;;;0.52;73.25
57048;BME280;42934;54.294;18.598;2023-02-10T01:26:52;101819.19;;;0.53;73.80
57048;BME280;42934;54.294;18.598;2023-02-10T01:29:22;101806.19;;;0.52;74.69
57048;BME280;42934;54.294;18.598;2023-02-10T01:31:52;101796.88;;;0.57;74.13
57048;BME280;42934;54.294;18.598;2023-02-10T01:34:21;101790.91;;;0.59;74.37
57048;BME280;42934;54.294;18.598;2023-02-10T01:36:50;101783.41;;;0.68;73.66
57048;BME280;42934;54.294;18.598;2023-02-10T01:39:19;101780.88;;;0.72;72.99
57048;BME280;42934;54.294;18.598;2023-02-10T01:41:48;101781.81;;;0.75;73.04
57048;BME280;42934;54.294;18.598;2023-02-10T01:47:26;101771.53;;;0.77;73.54
57048;BME280;42934;54.294;18.598;2023-02-10T01:49:55;101773.28;;;0.78;73.44
57048;BME280;42934;54.294;18.598;2023-02-10T01:52:27;101767.34;;;0.82;73.45
57048;BME280;42934;54.294;18.598;2023-02-10T01:55:01;101780.31;;;0.83;73.10
57048;BME280;42934;54.294;18.598;2023-02-10T01:57:34;101780.28;;;0.82;73.56
57048;BME280;42934;54.294;18.598;2023-02-10T02:00:05;101773.50;;;0.85;73.57
57048;BME280;42934;54.294;18.598;2023-02-10T02:02:45;101770.06;;;0.86;73.64
57048;BME280;42934;54.294;18.598;2023-02-10T02:08:08;101747.78;;;0.92;73.77
57048;BME280;42934;54.294;18.598;2023-02-10T02:10:51;101747.00;;;0.96;72.86
57048;BME280;42934;54.294;18.598;2023-02-10T02:13:28;101734.03;;;0.94;73.23
57048;BME280;42934;54.294;18.598;2023-02-10T02:16:05;101730.56;;;0.94;73.52
57048;BME280;42934;54.294;18.598;2023-02-10T02:18:44;101735.81;;;0.97;74.16
57048;BME280;42934;54.294;18.598;2023-02-10T02:21:58;101723.78;;;0.97;74.18
57048;BME280;42934;54.294;18.598;2023-02-10T02:24:57;101726.38;;;0.97;74.50
57048;BME280;42934;54.294;18.598;2023-02-10T02:27:51;101711.66;;;0.96;74.72
57048;BME280;42934;54.294;18.598;2023-02-10T02:30:44;101711.75;;;0.99;73.98
57048;BME280;42934;54.294;18.598;2023-02-10T02:33:19;101710.88;;;0.99;73.89
57048;BME280;42934;54.294;18.598;2023-02-10T02:35:55;101695.41;;;1.00;74.36
57048;BME280;42934;54.294;18.598;2023-02-10T02:38:27;101698.00;;;1.00;73.86
57048;BME280;42934;54.294;18.598;2023-02-10T02:40:56;101705.78;;;1.02;75.12
57048;BME280;42934;54.294;18.598;2023-02-10T02:43:26;101697.22;;;1.06;74.41
57048;BME280;42934;54.294;18.598;2023-02-10T02:45:58;101690.38;;;1.06;74.53
57048;BME280;42934;54.294;18.598;2023-02-10T02:48:52;101699.94;;;1.10;74.37
57048;BME280;42934;54.294;18.598;2023-02-10T02:51:35;101700.72;;;1.06;75.92
57048;BME280;42934;54.294;18.598;2023-02-10T02:54:13;101703.47;;;1.14;75.35
57048;BME280;42934;54.294;18.598;2023-02-10T02:56:46;101701.78;;;1.16;75.13
57048;BME280;42934;54.294;18.598;2023-02-10T02:59:25;101712.22;;;1.19;74.83
57048;BME280;42934;54.294;18.598;2023-02-10T03:02:00;101706.19;;;1.20;74.73
57048;BME280;42934;54.294;18.598;2023-02-10T03:04:33;101699.34;;;1.22;74.62
57048;BME280;42934;54.294;18.598;2023-02-10T03:07:03;101705.44;;;1.24;74.89
57048;BME280;42934;54.294;18.598;2023-02-10T03:09:33;101706.31;;;1.25;74.81
57048;BME280;42934;54.294;18.598;2023-02-10T03:12:04;101705.50;;;1.27;74.89
57048;BME280;42934;54.294;18.598;2023-02-10T03:14:33;101694.31;;;1.28;75.02
57048;BME280;42934;54.294;18.598;2023-02-10T03:17:02;101691.72;;;1.28;75.18
57048;BME280;42934;54.294;18.598;2023-02-10T03:19:33;101696.19;;;1.35;75.02
57048;BME280;42934;54.294;18.598;2023-02-10T03:22:03;101690.13;;;1.35;74.87
57048;BME280;42934;54.294;18.598;2023-02-10T03:24:32;101691.09;;;1.39;74.76
57048;BME280;42934;54.294;18.598;2023-02-10T03:27:02;101703.13;;;1.38;74.88
57048;BME280;42934;54.294;18.598;2023-02-10T03:29:33;101696.28;;;1.39;75.42
57048;BME280;42934;54.294;18.598;2023-02-10T03:32:02;101701.53;;;1.43;75.27
57048;BME280;42934;54.294;18.598;2023-02-10T03:34:34;101707.56;;;1.44;75.23
57048;BME280;42934;54.294;18.598;2023-02-10T03:37:03;101701.59;;;1.46;74.80
57048;BME280;42934;54.294;18.598;2023-02-10T03:39:32;101699.06;;;1.48;74.23
57048;BME280;42934;54.294;18.598;2023-02-10T03:42:02;101709.41;;;1.49;74.85
57048;BME280;42934;54.294;18.598;2023-02-10T03:44:31;101710.22;;;1.45;74.73
57048;BME280;42934;54.294;18.598;2023-02-10T03:47:00;101712.88;;;1.50;74.68
57048;BME280;42934;54.294;18.598;2023-02-10T03:49:29;101707.69;;;1.50;74.88
57048;BME280;42934;54.294;18.598;2023-02-10T03:52:00;101708.63;;;1.52;75.13
57048;BME280;42934;54.294;18.598;2023-02-10T03:54:29;101698.25;;;1.52;75.11
57048;BME280;42934;54.294;18.598;2023-02-10T03:56:59;101708.66;;;1.53;75.52
57048;BME280;42934;54.294;18.598;2023-02-10T03:59:28;101713.00;;;1.54;75.63
57048;BME280;42934;54.294;18.598;2023-02-10T04:01:58;101716.50;;;1.56;74.87
57048;BME280;42934;54.294;18.598;2023-02-10T04:04:27;101729.50;;;1.59;75.48
57048;BME280;42934;54.294;18.598;2023-02-10T04:06:56;101734.56;;;1.55;75.10
57048;BME280;42934;54.294;18.598;2023-02-10T04:09:27;101743.25;;;1.58;75.96
57048;BME280;42934;54.294;18.598;2023-02-10T04:11:56;101755.38;;;1.59;76.17
57048;BME280;42934;54.294;18.598;2023-02-10T04:14:25;101759.78;;;1.64;75.86
57048;BME280;42934;54.294;18.598;2023-02-10T04:16:54;101761.69;;;1.71;75.63
57048;BME280;42934;54.294;18.598;2023-02-10T04:19:23;101762.53;;;1.71;75.67
57048;BME280;42934;54.294;18.598;2023-02-10T04:21:53;101753.97;;;1.74;75.84
57048;BME280;42934;54.294;18.598;2023-02-10T04:24:22;101753.13;;;1.76;75.72
57048;BME280;42934;54.294;18.598;2023-02-10T04:26:52;101751.44;;;1.77;75.03
57048;BME280;42934;54.294;18.598;2023-02-10T04:29:22;101741.09;;;1.77;75.75
57048;BME280;42934;54.294;18.598;2023-02-10T04:31:52;101745.47;;;1.79;75.45
57048;BME280;42934;54.294;18.598;2023-02-10T04:34:21;101753.22;;;1.79;75.69
57048;BME280;42934;54.294;18.598;2023-02-10T04:36:50;101740.34;;;1.83;75.66
57048;BME280;42934;54.294;18.598;2023-02-10T04:39:19;101736.91;;;1.85;75.40
57048;BME280;42934;54.294;18.598;2023-02-10T04:41:49;101745.59;;;1.86;75.46
57048;BME280;42934;54.294;18.598;2023-02-10T04:44:19;101746.41;;;1.85;75.62
57048;BME280;42934;54.294;18.598;2023-02-10T04:46:49;101743.00;;;1.87;75.38
57048;BME280;42934;54.294;18.598;2023-02-10T04:49:18;101749.97;;;1.90;76.03
57048;BME280;42934;54.294;18.598;2023-02-10T04:51:48;101750.03;;;1.91;75.69
57048;BME280;42934;54.294;18.598;2023-02-10T04:54:17;101745.59;;;1.86;76.15
57048;BME280;42934;54.294;18.598;2023-02-10T04:56:46;101749.13;;;1.91;76.22
57048;BME280;42934;54.294;18.598;2023-02-10T04:59:16;101748.31;;;1.93;75.92
57048;BME280;42934;54.294;18.598;2023-02-10T05:01:47;101756.16;;;1.96;76.11
57048;BME280;42934;54.294;18.598;2023-02-10T05:04:16;101755.28;;;1.96;76.21
57048;BME280;42934;54.294;18.598;2023-02-10T05:06:45;101745.78;;;1.95;76.43
57048;BME280;42934;54.294;18.598;2023-02-10T05:09:14;101746.69;;;1.98;76.56
57048;BME280;42934;54.294;18.598;2023-02-10T05:11:43;101743.25;;;1.98;76.13
57048;BME280;42934;54.294;18.598;2023-02-10T05:14:13;101744.97;;;1.99;75.81
57048;BME280;42934;54.294;18.598;2023-02-10T05:16:42;101750.19;;;2.00;76.47
57048;BME280;42934;54.294;18.598;2023-02-10T05:19:12;101746.72;;;2.00;76.69
57048;BME280;42934;54.294;18.598;2023-02-10T05:21:42;101738.94;;;2.00;76.97
57048;BME280;42934;54.294;18.598;2023-02-10T05:24:11;101725.19;;;2.02;76.85
57048;BME280;42934;54.294;18.598;2023-02-10T05:26:40;101720.91;;;2.03;76.99
57048;BME280;42934;54.294;18.598;2023-02-10T05:29:09;101727.84;;;2.05;77.14
57048;BME280;42934;54.294;18.598;2023-02-10T05:31:39;101729.50;;;2.02;77.16
57048;BME280;42934;54.294;18.598;2023-02-10T05:34:08;101729.63;;;2.08;76.80
57048;BME280;42934;54.294;18.598;2023-02-10T05:36:39;101740.03;;;2.11;76.61
57048;BME280;42934;54.294;18.598;2023-02-10T05:39:11;101733.13;;;2.12;77.01
57048;BME280;42934;54.294;18.598;2023-02-10T05:41:53;101738.31;;;2.12;77.31
57048;BME280;42934;54.294;18.598;2023-02-10T05:44:24;101738.41;;;2.15;77.11
57048;BME280;42934;54.294;18.598;2023-02-10T05:46:54;101750.50;;;2.16;77.09
57048;BME280;42934;54.294;18.598;2023-02-10T05:49:23;101741.81;;;2.12;77.75
57048;BME280;42934;54.294;18.598;2023-02-10T05:51:54;101734.09;;;2.15;77.91
57048;BME280;42934;54.294;18.598;2023-02-10T05:54:23;101741.84;;;2.15;77.69
57048;BME280;42934;54.294;18.598;2023-02-10T05:56:52;101743.63;;;2.18;77.83
57048;BME280;42934;54.294;18.598;2023-02-10T05:59:21;101736.72;;;2.18;77.74
57048;BME280;42934;54.294;18.598;2023-02-10T06:01:51;101740.19;;;2.20;77.60
57048;BME280;42934;54.294;18.598;2023-02-10T06:04:20;101728.16;;;2.22;77.66
57048;BME280;42934;54.294;18.598;2023-02-10T06:06:49;101727.31;;;2.23;77.86
57048;BME280;42934;54.294;18.598;2023-02-10T06:09:20;101733.41;;;2.25;77.58
57048;BME280;42934;54.294;18.598;2023-02-10T06:11:50;101723.91;;;2.26;77.79
57048;BME280;42934;54.294;18.598;2023-02-10T06:14:20;101729.09;;;2.26;77.45
57048;BME280;42934;54.294;18.598;2023-02-10T06:16:49;101719.63;;;2.28;77.22
57048;BME280;42934;54.294;18.598;2023-02-10T06:19:18;101717.03;;;2.28;77.51
57048;BME280;42934;54.294;18.598;2023-02-10T06:21:48;101727.41;;;2.28;77.87
57048;BME280;42934;54.294;18.598;2023-02-10T06:24:17;101732.63;;;2.30;77.65
57048;BME280;42934;54.294;18.598;2023-02-10T06:26:48;101741.22;;;2.28;78.10
57048;BME280;42934;54.294;18.598;2023-02-10T06:29:17;101737.78;;;2.28;78.10
57048;BME280;42934;54.294;18.598;2023-02-10T06:31:46;101739.56;;;2.31;77.82
57048;BME280;42934;54.294;18.598;2023-02-10T06:34:16;101751.72;;;2.35;77.62
57048;BME280;42934;54.294;18.598;2023-02-10T06:36:45;101759.53;;;2.36;77.98
57048;BME280;42934;54.294;18.598;2023-02-10T06:39:14;101756.13;;;2.39;78.38
57048;BME280;42934;54.294;18.598;2023-02-10T06:41:43;101757.84;;;2.38;78.40
57048;BME280;42934;54.294;18.598;2023-02-10T06:52:23;101778.72;;;2.46;78.42
57048;BME280;42934;54.294;18.598;2023-02-10T06:55:19;101776.22;;;2.50;78.41
57048;BME280;42934;54.294;18.598;2023-02-10T07:02:21;101758.13;;;2.54;78.21
57048;BME280;42934;54.294;18.598;2023-02-10T07:04:50;101759.84;;;2.55;78.01
57048;BME280;42934;54.294;18.598;2023-02-10T07:07:23;101765.16;;;2.61;78.08
57048;BME280;42934;54.294;18.598;2023-02-10T07:09:52;101754.72;;;2.58;78.03
57048;BME280;42934;54.294;18.598;2023-02-10T07:12:21;101753.97;;;2.63;78.14
57048;BME280;42934;54.294;18.598;2023-02-10T07:15:17;101750.50;;;2.63;78.21
57048;BME280;42934;54.294;18.598;2023-02-10T07:17:51;101752.22;;;2.62;78.86
57048;BME280;42934;54.294;18.598;2023-02-10T07:20:20;101769.53;;;2.63;78.81
57048;BME280;42934;54.294;18.598;2023-02-10T07:22:51;101777.31;;;2.63;78.87
57048;BME280;42934;54.294;18.598;2023-02-10T07:25:21;101762.72;;;2.70;78.77
57048;BME280;42934;54.294;18.598;2023-02-10T07:27:50;101764.47;;;2.71;78.65
57048;BME280;42934;54.294;18.598;2023-02-10T08:06:21;101816.88;;;3.02;78.63
57048;BME280;42934;54.294;18.598;2023-02-10T08:10:46;101822.22;;;3.09;78.63
57048;BME280;42934;54.294;18.598;2023-02-10T08:48:14;101867.78;;;3.47;77.94
57048;BME280;42934;54.294;18.598;2023-02-10T09:00:35;101870.75;;;3.70;77.27
57048;BME280;42934;54.294;18.598;2023-02-10T09:07:47;101881.22;;;3.76;77.04
57048;BME280;42934;54.294;18.598;2023-02-10T09:15:07;101890.75;;;3.75;76.88
57048;BME280;42934;54.294;18.598;2023-02-10T09:37:28;101875.34;;;3.86;76.75
57048;BME280;42934;54.294;18.598;2023-02-10T09:39:58;101887.44;;;3.84;76.63
57048;BME280;42934;54.294;18.598;2023-02-10T09:58:41;101918.69;;;3.89;77.24
57048;BME280;42934;54.294;18.598;2023-02-10T10:11:48;101917.91;;;3.94;76.81
57048;BME280;42934;54.294;18.598;2023-02-10T10:14:21;101914.53;;;4.01;77.15
57048;BME280;42934;54.294;18.598;2023-02-10T10:22:10;101926.63;;;3.98;77.01
57048;BME280;42934;54.294;18.598;2023-02-10T10:29:23;101929.22;;;3.99;77.09
57048;BME280;42934;54.294;18.598;2023-02-10T10:32:03;101942.16;;;3.95;76.91
57048;BME280;42934;54.294;18.598;2023-02-10T10:34:39;101939.56;;;3.96;76.94
57048;BME280;42934;54.294;18.598;2023-02-10T10:46:59;101962.69;;;3.79;77.71
57048;BME280;42934;54.294;18.598;2023-02-10T10:51:23;101964.31;;;3.71;77.41
57048;BME280;42934;54.294;18.598;2023-02-10T10:58:01;101958.09;;;3.64;77.43
57048;BME280;42934;54.294;18.598;2023-02-10T11:00:31;101966.81;;;3.65;77.42
57048;BME280;42934;54.294;18.598;2023-02-10T11:07:52;101953.72;;;3.60;77.70
57048;BME280;42934;54.294;18.598;2023-02-10T11:10:25;101966.81;;;3.65;77.61
57048;BME280;42934;54.294;18.598;2023-02-10T11:12:55;101963.31;;;3.64;77.40
57048;BME280;42934;54.294;18.598;2023-02-10T11:15:33;101964.22;;;3.65;77.30
57048;BME280;42934;54.294;18.598;2023-02-10T11:18:06;101963.31;;;3.64;77.22
57048;BME280;42934;54.294;18.598;2023-02-10T11:20:36;101961.56;;;3.63;77.53
57048;BME280;42934;54.294;18.598;2023-02-10T11:23:15;101964.22;;;3.65;77.42
57048;BME280;42934;54.294;18.598;2023-02-10T11:25:47;101971.28;;;3.74;77.28
57048;BME280;42934;54.294;18.598;2023-02-10T11:28:26;101977.88;;;4.08;76.78
57048;BME280;42934;54.294;18.598;2023-02-10T11:30:58;101986.78;;;4.25;76.25
57048;BME280;42934;54.294;18.598;2023-02-10T11:33:30;101990.13;;;4.15;76.29
57048;BME280;42934;54.294;18.598;2023-02-10T11:36:03;101982.34;;;4.17;76.27
57048;BME280;42934;54.294;18.598;2023-02-10T11:38:35;101976.81;;;4.53;76.03
57048;BME280;42934;54.294;18.598;2023-02-10T11:41:07;101975.31;;;4.73;75.94
57048;BME280;42934;54.294;18.598;2023-02-10T11:43:47;101968.63;;;4.94;75.69
57048;BME280;42934;54.294;18.598;2023-02-10T11:46:20;101964.44;;;5.07;74.68
57048;BME280;42934;54.294;18.598;2023-02-10T11:48:55;101963.81;;;5.31;74.64
57048;BME280;42934;54.294;18.598;2023-02-10T11:51:25;101965.69;;;5.47;74.56
57048;BME280;42934;54.294;18.598;2023-02-10T11:53:56;101964.09;;;5.58;74.10
57048;BME280;42934;54.294;18.598;2023-02-10T11:56:32;101960.59;;;5.53;73.34
57048;BME280;42934;54.294;18.598;2023-02-10T12:00:36;101971.09;;;5.62;73.09
57048;BME280;42934;54.294;18.598;2023-02-10T12:03:34;101970.06;;;5.48;73.50
57048;BME280;42934;54.294;18.598;2023-02-10T12:06:05;101976.88;;;5.35;73.39
57048;BME280;42934;54.294;18.598;2023-02-10T12:08:47;101981.16;;;5.27;73.83
57048;BME280;42934;54.294;18.598;2023-02-10T12:11:27;101980.25;;;5.23;74.02
57048;BME280;42934;54.294;18.598;2023-02-10T12:14:06;101967.13;;;5.14;73.55
57048;BME280;42934;54.294;18.598;2023-02-10T12:16:47;101970.56;;;5.10;73.74
57048;BME280;42934;54.294;18.598;2023-02-10T12:19:23;101968.75;;;5.05;73.61
57048;BME280;42934;54.294;18.598;2023-02-10T12:22:03;101975.75;;;5.10;73.55
57048;BME280;42934;54.294;18.598;2023-02-10T12:27:51;101983.88;;;5.39;73.07
57048;BME280;42934;54.294;18.598;2023-02-10T12:30:33;101989.25;;;5.55;73.22
57048;BME280;42934;54.294;18.598;2023-02-10T12:33:24;101993.69;;;5.66;72.67
57048;BME280;42934;54.294;18.598;2023-02-10T12:36:07;101993.78;;;5.77;72.19
57048;BME280;42934;54.294;18.598;2023-02-10T12:38:51;101998.31;;;5.95;72.17
57048;BME280;42934;54.294;18.598;2023-02-10T12:41:30;102004.53;;;6.09;72.09
57048;BME280;42934;54.294;18.598;2023-02-10T12:44:16;101995.84;;;6.13;71.48
57048;BME280;42934;54.294;18.598;2023-02-10T12:47:01;101994.19;;;6.26;71.57
57048;BME280;42934;54.294;18.598;2023-02-10T12:49:45;102003.81;;;6.33;70.98
57048;BME280;42934;54.294;18.598;2023-02-10T12:52:19;102002.16;;;6.45;70.25
57048;BME280;42934;54.294;18.598;2023-02-10T12:56:43;101983.88;;;6.45;69.80
57048;BME280;42934;54.294;18.598;2023-02-10T12:59:43;101985.69;;;6.61;70.04
57048;BME280;42934;54.294;18.598;2023-02-10T13:02:17;101990.06;;;6.62;69.22
57048;BME280;42934;54.294;18.598;2023-02-10T13:05:55;101985.75;;;6.69;68.91
57048;BME280;42934;54.294;18.598;2023-02-10T13:08:32;101983.19;;;6.78;69.38
57048;BME280;42934;54.294;18.598;2023-02-10T13:11:09;101986.69;;;6.85;69.07
57048;BME280;42934;54.294;18.598;2023-02-10T13:13:41;101988.41;;;6.78;68.47
57048;BME280;42934;54.294;18.598;2023-02-10T13:16:16;101988.41;;;6.78;68.58
57048;BME280;42934;54.294;18.598;2023-02-10T13:18:52;101984.91;;;6.77;69.00
57048;BME280;42934;54.294;18.598;2023-02-10T13:21:26;101991.84;;;6.72;68.58
57048;BME280;42934;54.294;18.598;2023-02-10T13:25:06;101985.69;;;6.58;68.84
57048;BME280;42934;54.294;18.598;2023-02-10T13:27:50;101965.63;;;6.46;68.62
57048;BME280;42934;54.294;18.598;2023-02-10T13:30:51;101986.38;;;6.29;68.29
57048;BME280;42934;54.294;18.598;2023-02-10T13:33:35;101987.13;;;6.07;68.24
57048;BME280;42934;54.294;18.598;2023-02-10T13:36:14;101993.94;;;5.94;68.29
57048;BME280;42934;54.294;18.598;2023-02-10T13:38:44;101998.22;;;5.87;69.06
57048;BME280;42934;54.294;18.598;2023-02-10T13:41:26;102000.75;;;5.78;68.42
57048;BME280;42934;54.294;18.598;2023-02-10T13:44:23;102008.47;;;5.66;68.57
57048;BME280;42934;54.294;18.598;2023-02-10T13:47:09;102007.53;;;5.61;69.25
57048;BME280;42934;54.294;18.598;2023-02-10T13:49:50;102012.72;;;5.56;69.14
57048;BME280;42934;54.294;18.598;2023-02-10T13:52:21;102010.00;;;5.47;69.08
57048;BME280;42934;54.294;18.598;2023-02-10T13:54:57;102003.13;;;5.54;68.74
57048;BME280;42934;54.294;18.598;2023-02-10T13:57:31;102009.22;;;5.56;69.27
57048;BME280;42934;54.294;18.598;2023-02-10T14:00:20;102013.59;;;5.57;69.35
57048;BME280;42934;54.294;18.598;2023-02-10T14:03:01;102016.19;;;5.58;69.74
57048;BME280;42934;54.294;18.598;2023-02-10T14:05:34;102007.50;;;5.56;69.15
57048;BME280;42934;54.294;18.598;2023-02-10T14:08:13;102001.41;;;5.56;69.64
57048;BME280;42934;54.294;18.598;2023-02-10T14:10:42;102010.88;;;5.47;69.16
57048;BME280;42934;54.294;18.598;2023-02-10T14:13:23;102010.81;;;5.40;69.02
57048;BME280;42934;54.294;18.598;2023-02-10T14:15:57;102019.41;;;5.33;69.65
57048;BME280;42934;54.294;18.598;2023-02-10T14:18:27;102019.38;;;5.30;69.74
57048;BME280;42934;54.294;18.598;2023-02-10T14:21:02;102029.84;;;5.33;70.39
57048;BME280;42934;54.294;18.598;2023-02-10T14:23:33;102022.03;;;5.33;69.35
57048;BME280;42934;54.294;18.598;2023-02-10T14:26:06;102029.75;;;5.25;70.32
57048;BME280;42934;54.294;18.598;2023-02-10T14:28:38;102021.00;;;5.20;70.38
57048;BME280;42934;54.294;18.598;2023-02-10T14:31:13;102030.47;;;5.12;69.93
57048;BME280;42934;54.294;18.598;2023-02-10T14:33:52;102020.03;;;5.10;70.11
57048;BME280;42934;54.294;18.598;2023-02-10T14:36:26;102017.38;;;5.09;70.15
57048;BME280;42934;54.294;18.598;2023-02-10T14:38:58;102017.34;;;5.04;70.47
57048;BME280;42934;54.294;18.598;2023-02-10T14:41:29;102019.03;;;5.02;70.21
57048;BME280;42934;54.294;18.598;2023-02-10T14:44:00;102015.53;;;4.98;70.66
57048;BME280;42934;54.294;18.598;2023-02-10T14:46:31;102010.28;;;4.97;70.42
57048;BME280;42934;54.294;18.598;2023-02-10T14:49:09;102009.34;;;4.90;70.93
57048;BME280;42934;54.294;18.598;2023-02-10T14:51:42;102014.56;;;4.89;70.26
57048;BME280;42934;54.294;18.598;2023-02-10T14:54:16;102011.03;;;4.85;71.08
57048;BME280;42934;54.294;18.598;2023-02-10T14:56:51;102010.16;;;4.83;70.55
57048;BME280;42934;54.294;18.598;2023-02-10T14:59:22;102011.00;;;4.84;70.64
57048;BME280;42934;54.294;18.598;2023-02-10T15:01:52;102010.97;;;4.81;70.52
57048;BME280;42934;54.294;18.598;2023-02-10T15:04:26;102023.13;;;4.80;70.77
57048;BME280;42934;54.294;18.598;2023-02-10T15:06:58;102018.75;;;4.77;71.21
57048;BME280;42934;54.294;18.598;2023-02-10T15:09:31;102023.91;;;4.74;71.26
57048;BME280;42934;54.294;18.598;2023-02-10T15:12:04;102022.09;;;4.69;71.44
57048;BME280;42934;54.294;18.598;2023-02-10T15:14:45;102029.88;;;4.67;71.20
57048;BME280;42934;54.294;18.598;2023-02-10T15:17:18;102031.59;;;4.65;71.56
57048;BME280;42934;54.294;18.598;2023-02-10T15:19:56;102018.56;;;4.64;71.58
57048;BME280;42934;54.294;18.598;2023-02-10T15:22:36;102028.00;;;4.59;71.30
57048;BME280;42934;54.294;18.598;2023-02-10T15:25:31;102025.31;;;4.52;71.37
57048;BME280;42934;54.294;18.598;2023-02-10T15:28:17;102023.50;;;4.45;71.53
57048;BME280;42934;54.294;18.598;2023-02-10T15:30:59;102021.72;;;4.43;71.81
57048;BME280;42934;54.294;18.598;2023-02-10T15:33:33;102016.44;;;4.38;71.65
57048;BME280;42934;54.294;18.598;2023-02-10T15:36:17;102021.59;;;4.35;71.76
57048;BME280;42934;54.294;18.598;2023-02-10T15:38:52;102016.41;;;4.33;71.84
57048;BME280;42934;54.294;18.598;2023-02-10T15:41:39;102019.00;;;4.33;71.96
57048;BME280;42934;54.294;18.598;2023-02-10T15:44:31;102026.75;;;4.30;71.94
57048;BME280;42934;54.294;18.598;2023-02-10T15:47:21;102025.84;;;4.28;72.21
57048;BME280;42934;54.294;18.598;2023-02-10T15:49:54;102029.25;;;4.24;71.92
57048;BME280;42934;54.294;18.598;2023-02-10T15:52:28;102032.69;;;4.22;72.06
57048;BME280;42934;54.294;18.598;2023-02-10T15:55:01;102032.69;;;4.23;71.90
57048;BME280;42934;54.294;18.598;2023-02-10T15:57:31;102025.63;;;4.15;72.11
57048;BME280;42934;54.294;18.598;2023-02-10T16:00:18;102033.44;;;4.16;72.22
57048;BME280;42934;54.294;18.598;2023-02-10T16:02:47;102025.66;;;4.16;72.35
57048;BME280;42934;54.294;18.598;2023-02-10T16:05:17;102028.25;;;4.16;72.26
57048;BME280;42934;54.294;18.598;2023-02-10T16:12:21;102021.19;;;4.06;72.31
57048;BME280;42934;54.294;18.598;2023-02-10T16:14:51;102024.50;;;3.97;72.40
57048;BME280;42934;54.294;18.598;2023-02-10T16:17:25;102023.53;;;3.94;72.64
57048;BME280;42934;54.294;18.598;2023-02-10T16:19:55;102036.53;;;3.92;72.77
57048;BME280;42934;54.294;18.598;2023-02-10T16:22:25;102028.66;;;3.87;72.83
57048;BME280;42934;54.294;18.598;2023-02-10T16:24:54;102037.31;;;3.88;73.02
57048;BME280;42934;54.294;18.598;2023-02-10T16:27:25;102039.91;;;3.88;72.97
57048;BME280;42934;54.294;18.598;2023-02-10T16:29:54;102044.28;;;3.89;73.10
57048;BME280;42934;54.294;18.598;2023-02-10T16:32:24;102032.16;;;3.90;73.02
57048;BME280;42934;54.294;18.598;2023-02-10T16:34:53;102037.25;;;3.85;73.79
57048;BME280;42934;54.294;18.598;2023-02-10T16:37:24;102029.47;;;3.85;73.46
57048;BME280;42934;54.294;18.598;2023-02-10T16:39:53;102026.00;;;3.84;73.47
57048;BME280;42934;54.294;18.598;2023-02-10T16:42:22;102026.88;;;3.85;73.52
57048;BME280;42934;54.294;18.598;2023-02-10T16:44:53;102022.53;;;3.84;73.24